createdAt,value
2018-01-19T00:01:29.543Z,1.80
2018-01-19T00:03:57.918Z,1.33
2018-01-19T00:06:26.265Z,0.83
2018-01-19T00:08:54.909Z,1.83
2018-01-19T00:11:23.897Z,0.90
2018-01-19T00:13:52.251Z,0.90
2018-01-19T00:16:20.605Z,1.00
2018-01-19T00:18:48.948Z,0.70
2018-01-19T00:21:17.323Z,1.00
2018-01-19T00:23:46.077Z,1.93
2018-01-19T00:26:14.391Z,1.00
2018-01-19T00:28:43.235Z,6.60
2018-01-19T00:31:11.545Z,1.03
2018-01-19T00:33:39.861Z,1.10
2018-01-19T00:36:08.517Z,4.30
2018-01-19T00:38:37.281Z,2.30
2018-01-19T00:41:12.824Z,1.10
2018-01-19T00:43:41.137Z,0.80
2018-01-19T00:46:09.862Z,2.60
2018-01-19T00:48:38.208Z,1.80
2018-01-19T00:51:06.553Z,1.73
2018-01-19T00:53:34.861Z,1.00
2018-01-19T00:56:03.221Z,5.73
2018-01-19T00:58:31.964Z,0.90
2018-01-19T01:01:00.301Z,1.53
2018-01-19T01:03:28.685Z,1.93
2018-01-19T01:05:57.030Z,1.27
2018-01-19T01:08:25.613Z,2.80
2018-01-19T01:10:53.948Z,5.40
2018-01-19T01:13:22.267Z,1.00
2018-01-19T01:15:50.603Z,2.00
2018-01-19T01:18:18.972Z,1.43
2018-01-19T01:20:47.378Z,1.00
2018-01-19T01:23:15.701Z,2.93
2018-01-19T01:25:44.038Z,7.40
2018-01-19T01:28:12.375Z,2.20
2018-01-19T01:30:40.719Z,4.20
2018-01-19T01:33:09.046Z,1.50
2018-01-19T01:35:37.387Z,1.27
2018-01-19T01:38:06.119Z,1.37
2018-01-19T01:40:34.479Z,2.07
2018-01-19T01:43:02.873Z,1.63
2018-01-19T01:45:31.201Z,1.20
2018-01-19T01:47:59.958Z,1.20
2018-01-19T01:50:28.309Z,1.33
2018-01-19T01:52:56.657Z,1.50
2018-01-19T01:55:25.376Z,2.50
2018-01-19T01:57:53.695Z,1.20
2018-01-19T02:00:22.275Z,3.50
2018-01-19T02:02:50.609Z,1.10
2018-01-19T02:05:18.987Z,1.40
2018-01-19T02:07:47.310Z,1.73
2018-01-19T02:10:15.650Z,2.20
2018-01-19T02:12:43.980Z,2.03
2018-01-19T02:15:12.708Z,2.50
2018-01-19T02:17:41.031Z,4.20
2018-01-19T02:20:09.473Z,1.20
2018-01-19T02:22:37.792Z,1.30
2018-01-19T02:25:06.137Z,1.70
2018-01-19T02:27:34.537Z,1.57
2018-01-19T02:30:02.884Z,2.70
2018-01-19T02:32:31.205Z,1.27
2018-01-19T02:35:00.450Z,1.50
2018-01-19T02:37:28.793Z,1.40
2018-01-19T02:39:57.529Z,2.17
2018-01-19T02:42:25.864Z,1.40
2018-01-19T02:44:54.221Z,1.73
2018-01-19T02:47:22.561Z,1.10
2018-01-19T02:49:50.894Z,1.40
2018-01-19T02:52:19.617Z,1.27
2018-01-19T02:54:47.937Z,1.40
2018-01-19T02:57:16.290Z,1.30
2018-01-19T02:59:44.901Z,1.43
2018-01-19T03:02:13.216Z,1.87
2018-01-19T03:04:41.920Z,1.13
2018-01-19T03:07:10.255Z,1.40
2018-01-19T03:09:38.989Z,1.27
2018-01-19T03:12:07.357Z,1.27
2018-01-19T03:14:35.700Z,1.20
2018-01-19T03:17:04.440Z,1.30
2018-01-19T03:19:32.796Z,1.57
2018-01-19T03:22:01.115Z,1.20
2018-01-19T03:24:29.458Z,1.57
2018-01-19T03:26:57.817Z,1.90
2018-01-19T03:29:26.133Z,1.00
2018-01-19T03:31:54.460Z,1.20
2018-01-19T03:34:23.169Z,7.20
2018-01-19T03:36:51.529Z,1.13
2018-01-19T03:39:19.848Z,1.30
2018-01-19T03:41:48.193Z,1.43
2018-01-19T03:44:16.554Z,1.53
2018-01-19T03:46:45.623Z,1.20
2018-01-19T03:49:13.966Z,1.10
2018-01-19T03:51:42.349Z,1.10
2018-01-19T03:54:10.665Z,1.23
2018-01-19T03:56:39.402Z,1.20
2018-01-19T03:59:07.729Z,0.80
2018-01-19T04:01:36.479Z,0.90
2018-01-19T04:04:04.837Z,1.10
2018-01-19T04:06:34.082Z,0.87
2018-01-19T04:09:02.424Z,1.13
2018-01-19T04:11:30.773Z,1.03
2018-01-19T04:13:59.095Z,1.30
2018-01-19T04:16:27.432Z,1.33
2018-01-19T04:18:55.765Z,1.43
2018-01-19T04:21:24.113Z,0.80
2018-01-19T04:23:52.428Z,1.00
2018-01-19T04:26:20.801Z,1.40
2018-01-19T04:28:49.146Z,1.07
2018-01-19T04:31:17.493Z,1.23
2018-01-19T04:33:45.841Z,1.13
2018-01-19T04:36:14.186Z,1.20
2018-01-19T04:38:42.542Z,1.33
2018-01-19T04:41:10.881Z,1.73
2018-01-19T04:43:39.615Z,1.20
2018-01-19T04:46:08.006Z,1.17
2018-01-19T04:48:36.351Z,1.10
2018-01-19T04:51:04.693Z,1.03
2018-01-19T04:53:33.024Z,1.10
2018-01-19T04:56:01.365Z,1.20
2018-01-19T04:58:30.120Z,1.33
2018-01-19T05:00:58.487Z,1.00
2018-01-19T05:03:26.824Z,0.90
2018-01-19T05:05:55.405Z,1.10
2018-01-19T05:08:23.870Z,0.93
2018-01-19T05:10:52.600Z,1.07
2018-01-19T05:13:20.953Z,0.90
2018-01-19T05:15:49.662Z,1.10
2018-01-19T05:18:18.056Z,1.00
2018-01-19T05:20:46.419Z,1.20
2018-01-19T05:23:14.814Z,1.20
2018-01-19T05:25:43.181Z,0.87
2018-01-19T05:28:11.516Z,1.20
2018-01-19T05:30:40.667Z,0.90
2018-01-19T05:33:09.034Z,1.07
2018-01-19T05:35:37.353Z,0.90
2018-01-19T05:38:05.693Z,0.97
2018-01-19T05:40:34.038Z,1.00
2018-01-19T05:43:02.417Z,1.10
2018-01-19T05:45:31.066Z,1.00
2018-01-19T05:47:59.812Z,1.10
2018-01-19T05:50:28.187Z,1.00
2018-01-19T05:52:56.513Z,1.23
2018-01-19T05:55:24.961Z,1.33
2018-01-19T05:57:53.305Z,1.20
2018-01-19T06:00:21.654Z,1.10
2018-01-19T06:02:50.410Z,1.10
2018-01-19T06:05:18.745Z,1.07
2018-01-19T06:07:47.398Z,0.90
2018-01-19T06:10:16.142Z,1.00
2018-01-19T06:12:44.452Z,0.90
2018-01-19T06:15:12.789Z,4.10
2018-01-19T06:17:41.170Z,1.10
2018-01-19T06:20:09.506Z,1.20
2018-01-19T06:22:38.215Z,1.27
2018-01-19T06:25:06.679Z,1.27
2018-01-19T06:27:35.443Z,0.90
2018-01-19T06:30:03.797Z,0.97
2018-01-19T06:32:32.514Z,1.37
2018-01-19T06:35:01.498Z,0.83
2018-01-19T06:37:29.827Z,1.10
2018-01-19T06:39:58.470Z,0.87
2018-01-19T06:42:27.225Z,1.20
2018-01-19T06:44:55.581Z,1.20
2018-01-19T06:47:23.954Z,1.33
2018-01-19T06:49:52.306Z,1.20
2018-01-19T06:52:20.777Z,1.30
2018-01-19T06:54:49.158Z,2.07
2018-01-19T06:57:17.893Z,1.07
2018-01-19T06:59:46.242Z,1.10
2018-01-19T07:02:14.609Z,1.20
2018-01-19T07:04:43.354Z,1.30
2018-01-19T07:07:11.954Z,1.23
2018-01-19T07:09:40.340Z,1.20
2018-01-19T07:12:09.116Z,3.33
2018-01-19T07:14:37.437Z,1.20
2018-01-19T07:17:06.090Z,1.20
2018-01-19T07:19:34.438Z,2.10
2018-01-19T07:22:02.765Z,1.10
2018-01-19T07:24:31.204Z,1.10
2018-01-19T07:26:59.910Z,1.20
2018-01-19T07:29:28.683Z,0.97
2018-01-19T07:31:57.382Z,1.33
2018-01-19T07:34:26.153Z,1.60
2018-01-19T07:36:54.496Z,1.20
2018-01-19T07:39:23.081Z,1.37
2018-01-19T07:41:51.401Z,2.13
2018-01-19T07:44:20.151Z,1.17
2018-01-19T07:46:48.517Z,1.30
2018-01-19T07:49:16.857Z,1.20
2018-01-19T07:51:45.221Z,2.57
2018-01-19T07:54:13.583Z,4.70
2018-01-19T07:56:41.954Z,1.20
2018-01-19T07:59:10.294Z,1.17
2018-01-19T08:01:38.717Z,1.60
2018-01-19T08:04:07.065Z,1.50
2018-01-19T08:06:36.681Z,1.30
2018-01-19T08:09:05.322Z,1.10
2018-01-19T08:11:34.407Z,1.67
2018-01-19T08:14:02.757Z,1.50
2018-01-19T08:16:31.082Z,2.03
2018-01-19T08:18:59.923Z,1.50
2018-01-19T08:21:28.315Z,1.63
2018-01-19T08:23:56.666Z,1.53
2018-01-19T08:26:25.010Z,1.40
2018-01-19T08:28:53.391Z,1.70
2018-01-19T08:31:22.567Z,1.67
2018-01-19T08:33:50.897Z,1.40
2018-01-19T08:36:19.254Z,1.53
2018-01-19T08:38:47.589Z,2.70
2018-01-19T08:41:15.931Z,1.40
2018-01-19T08:43:44.278Z,1.63
2018-01-19T08:46:12.730Z,2.30
2018-01-19T08:48:41.075Z,1.47
2018-01-19T08:51:09.493Z,1.57
2018-01-19T08:53:38.211Z,1.43
2018-01-19T08:56:06.542Z,1.70
2018-01-19T08:58:34.917Z,2.10
2018-01-19T09:01:03.247Z,1.77
2018-01-19T09:03:31.566Z,1.90
2018-01-19T09:06:00.714Z,1.53
2018-01-19T09:08:29.045Z,1.90
2018-01-19T09:10:57.409Z,1.97
2018-01-19T09:13:25.791Z,1.90
2018-01-19T09:15:54.143Z,1.40
2018-01-19T09:18:22.457Z,1.47
2018-01-19T09:20:50.792Z,1.93
2018-01-19T09:23:19.426Z,1.70
2018-01-19T09:25:48.115Z,2.07
2018-01-19T09:28:16.493Z,2.60
2018-01-19T09:30:44.846Z,1.67
2018-01-19T09:33:13.222Z,1.30
2018-01-19T09:35:41.582Z,2.33
2018-01-19T09:38:09.930Z,1.97
2018-01-19T09:40:38.276Z,2.60
2018-01-19T09:43:06.642Z,1.90
2018-01-19T09:45:34.992Z,1.73
2018-01-19T09:48:03.617Z,1.47
2018-01-19T09:50:32.280Z,2.00
2018-01-19T09:53:00.602Z,1.50
2018-01-19T09:55:28.983Z,3.50
2018-01-19T09:57:57.332Z,1.70
2018-01-19T10:00:25.677Z,1.77
2018-01-19T10:02:54.302Z,1.30
2018-01-19T10:05:22.883Z,1.47
2018-01-19T10:07:51.519Z,1.97
2018-01-19T10:10:19.869Z,1.50
2018-01-19T10:12:48.253Z,2.50
2018-01-19T10:15:16.584Z,3.63
2018-01-19T10:17:44.907Z,2.83
2018-01-19T10:20:13.562Z,1.80
2018-01-19T10:22:43.003Z,2.20
2018-01-19T10:25:11.394Z,3.17
2018-01-19T10:27:39.759Z,1.80
2018-01-19T10:30:09.126Z,2.07
2018-01-19T10:32:37.469Z,2.07
2018-01-19T10:35:05.853Z,1.90
2018-01-19T10:37:34.202Z,1.98
2018-01-19T10:40:02.545Z,2.07
2018-01-19T10:42:31.323Z,3.00
2018-01-19T10:45:00.082Z,2.40
2018-01-19T10:47:28.457Z,2.80
2018-01-19T10:49:56.790Z,1.53
2018-01-19T10:52:26.009Z,2.80
2018-01-19T10:54:54.356Z,1.80
2018-01-19T10:57:24.044Z,1.90
2018-01-19T10:59:52.390Z,2.40
2018-01-19T11:02:20.743Z,1.80
2018-01-19T11:04:49.067Z,3.23
2018-01-19T11:07:17.437Z,1.83
2018-01-19T11:09:45.797Z,1.93
2018-01-19T11:12:14.902Z,1.70
2018-01-19T11:14:43.269Z,1.73
2018-01-19T11:17:11.610Z,3.63
2018-01-19T11:19:40.366Z,3.20
2018-01-19T11:22:08.715Z,1.70
2018-01-19T11:24:37.058Z,3.03
2018-01-19T11:27:05.421Z,2.17
2018-01-19T11:29:33.734Z,3.50
2018-01-19T11:32:02.099Z,3.30
2018-01-19T11:34:30.485Z,2.30
2018-01-19T11:36:58.821Z,2.13
2018-01-19T11:39:27.145Z,3.27
2018-01-19T11:41:55.497Z,2.83
2018-01-19T11:44:24.228Z,5.23
2018-01-19T11:46:53.057Z,3.00
2018-01-19T11:49:21.398Z,5.20
2018-01-19T11:51:49.737Z,2.60
2018-01-19T11:54:18.124Z,3.77
2018-01-19T11:56:47.349Z,2.63
2018-01-19T11:59:15.682Z,3.70
2018-01-19T12:01:44.429Z,2.50
2018-01-19T12:04:12.790Z,3.77
2018-01-19T12:06:41.117Z,2.10
2018-01-19T12:09:09.891Z,3.90
2018-01-19T12:11:38.244Z,12.07
2018-01-19T12:14:06.590Z,31.73
2018-01-19T12:16:35.242Z,17.40
2018-01-19T12:19:03.608Z,16.20
2018-01-19T12:21:31.942Z,14.97
2018-01-19T12:24:00.308Z,16.30
2018-01-19T12:26:28.669Z,12.00
2018-01-19T12:28:57.046Z,13.10
2018-01-19T12:31:25.560Z,12.27
2018-01-19T12:33:54.580Z,21.47
2018-01-19T12:36:23.603Z,12.23
2018-01-19T12:38:52.694Z,13.70
2018-01-19T12:41:21.234Z,19.83
2018-01-19T12:43:49.823Z,12.27
2018-01-19T12:46:18.537Z,12.10
2018-01-19T12:48:47.281Z,11.00
2018-01-19T12:51:15.629Z,12.80
2018-01-19T12:53:44.000Z,13.90
2018-01-19T12:56:12.350Z,9.13
2018-01-19T12:58:40.687Z,11.00
2018-01-19T13:01:09.053Z,14.53
2018-01-19T13:03:37.408Z,11.63
2018-01-19T13:06:06.218Z,10.90
2018-01-19T13:08:34.590Z,8.70
2018-01-19T13:11:02.968Z,13.00
2018-01-19T13:13:31.353Z,9.27
2018-01-19T13:16:00.524Z,8.07
2018-01-19T13:18:29.280Z,10.40
2018-01-19T13:20:57.641Z,11.40
2018-01-19T13:23:26.217Z,11.00
2018-01-19T13:25:54.593Z,15.90
2018-01-19T13:28:22.976Z,10.17
2018-01-19T13:30:51.314Z,13.67
2018-01-19T13:33:19.713Z,10.30
2018-01-19T13:35:48.078Z,11.13
2018-01-19T13:38:16.507Z,8.53
2018-01-19T13:40:44.886Z,9.90
2018-01-19T13:43:13.214Z,9.07
2018-01-19T13:45:42.058Z,15.03
2018-01-19T13:48:10.878Z,15.23
2018-01-19T13:50:39.590Z,7.90
2018-01-19T13:53:08.012Z,9.60
2018-01-19T13:55:36.409Z,9.43
2018-01-19T13:58:04.857Z,8.97
2018-01-19T14:00:33.671Z,7.27
2018-01-19T14:03:02.271Z,10.43
2018-01-19T14:05:31.261Z,9.57
2018-01-19T14:07:59.584Z,9.73
2018-01-19T14:10:27.962Z,10.10
2018-01-19T14:12:56.349Z,7.80
2018-01-19T14:15:24.851Z,13.47
2018-01-19T14:17:53.202Z,9.20
2018-01-19T14:20:21.559Z,16.07
2018-01-19T14:22:50.153Z,9.53
2018-01-19T14:25:18.803Z,8.93
2018-01-19T14:27:47.157Z,10.67
2018-01-19T14:30:15.822Z,12.43
2018-01-19T14:32:44.372Z,9.53
2018-01-19T14:35:13.220Z,8.00
2018-01-19T14:37:42.305Z,4.30
2018-01-19T14:40:10.921Z,9.43
2018-01-19T14:42:39.781Z,17.77
2018-01-19T14:45:08.127Z,12.00
2018-01-19T14:47:36.446Z,6.00
2018-01-19T14:50:04.795Z,9.43
2018-01-19T14:52:33.190Z,12.90
2018-01-19T14:55:01.519Z,7.90
2018-01-19T14:57:29.884Z,10.53
2018-01-19T14:59:58.265Z,10.43
2018-01-19T15:02:26.637Z,9.07
2018-01-19T15:04:55.725Z,12.10
2018-01-19T15:07:24.487Z,10.07
2018-01-19T15:09:53.094Z,9.83
2018-01-19T15:12:21.497Z,8.97
2018-01-19T15:14:49.862Z,9.53
2018-01-19T15:17:18.693Z,8.30
2018-01-19T15:19:47.060Z,7.77
2018-01-19T15:22:15.417Z,8.50
2018-01-19T15:24:43.773Z,13.00
2018-01-19T15:27:12.542Z,8.37
2018-01-19T15:29:40.934Z,10.07
2018-01-19T15:32:09.986Z,10.23
2018-01-19T15:34:38.356Z,9.87
2018-01-19T15:37:06.979Z,8.27
2018-01-19T15:39:35.389Z,9.50
2018-01-19T15:42:05.047Z,11.50
2018-01-19T15:44:33.474Z,9.20
2018-01-19T15:47:02.258Z,11.33
2018-01-19T15:49:31.237Z,7.97
2018-01-19T15:51:59.605Z,10.40
2018-01-19T15:54:28.833Z,9.97
2018-01-19T15:56:57.560Z,8.73
2018-01-19T15:59:25.949Z,8.23
2018-01-19T16:01:54.345Z,9.43
2018-01-19T16:04:22.726Z,8.60
2018-01-19T16:06:51.513Z,9.97
2018-01-19T16:09:19.986Z,9.53
2018-01-19T16:11:48.369Z,7.63
2018-01-19T16:14:16.728Z,10.30
2018-01-19T16:16:45.111Z,9.73
2018-01-19T16:19:13.453Z,9.40
2018-01-19T16:21:41.829Z,9.13
2018-01-19T16:24:10.181Z,8.87
2018-01-19T16:26:38.957Z,9.43
2018-01-19T16:29:07.296Z,8.70
2018-01-19T16:31:36.038Z,11.03
2018-01-19T16:34:04.822Z,10.10
2018-01-19T16:36:33.178Z,9.47
2018-01-19T16:39:01.881Z,6.57
2018-01-19T16:41:31.056Z,10.57
2018-01-19T16:44:00.079Z,9.63
2018-01-19T16:46:28.852Z,8.90
2018-01-19T16:48:57.192Z,8.90
2018-01-19T16:51:25.850Z,9.00
2018-01-19T16:53:54.223Z,7.17
2018-01-19T16:56:23.126Z,7.20
2018-01-19T16:58:51.652Z,11.37
2018-01-19T17:01:19.990Z,8.03
2018-01-19T17:03:48.393Z,11.17
2018-01-19T17:06:16.796Z,11.77
2018-01-19T17:08:45.196Z,10.50
2018-01-19T17:11:13.974Z,9.00
2018-01-19T17:13:42.971Z,7.60
2018-01-19T17:16:11.298Z,7.10
2018-01-19T17:18:39.641Z,11.50
2018-01-19T17:21:08.742Z,10.40
2018-01-19T17:23:37.172Z,10.60
2018-01-19T17:26:05.526Z,8.03
2018-01-19T17:28:33.934Z,9.70
2018-01-19T17:31:02.316Z,9.37
2018-01-19T17:33:30.658Z,7.93
2018-01-19T17:35:59.000Z,6.50
2018-01-19T17:38:27.738Z,12.97
2018-01-19T17:40:56.097Z,10.70
2018-01-19T17:43:25.074Z,21.73
2018-01-19T17:45:54.357Z,9.40
2018-01-19T17:48:23.214Z,12.37
2018-01-19T17:50:51.674Z,10.40
2018-01-19T17:53:20.027Z,13.00
2018-01-19T17:55:48.385Z,9.83
2018-01-19T17:58:16.927Z,11.10
2018-01-19T18:00:45.955Z,8.40
2018-01-19T18:03:14.321Z,15.73
2018-01-19T18:05:42.677Z,8.87
2018-01-19T18:08:11.107Z,9.73
2018-01-19T18:10:39.509Z,8.67
2018-01-19T18:13:07.856Z,9.80
2018-01-19T18:15:36.210Z,11.13
2018-01-19T18:18:04.670Z,8.40
2018-01-19T18:20:33.008Z,7.37
2018-01-19T18:23:01.488Z,6.67
2018-01-19T18:25:29.817Z,9.70
2018-01-19T18:27:58.212Z,7.53
2018-01-19T18:30:26.736Z,7.63
2018-01-19T18:32:55.464Z,10.60
2018-01-19T18:35:24.474Z,6.40
2018-01-19T18:37:54.127Z,7.60
2018-01-19T18:40:22.446Z,4.80
2018-01-19T18:42:50.799Z,5.37
2018-01-19T18:45:19.145Z,9.87
2018-01-19T18:47:47.513Z,10.57
2018-01-19T18:50:16.391Z,8.67
2018-01-19T18:52:45.150Z,7.13
2018-01-19T18:55:13.548Z,8.37
2018-01-19T18:57:41.900Z,10.47
2018-01-19T19:00:10.257Z,7.80
2018-01-19T19:02:38.584Z,8.50
2018-01-19T19:05:06.931Z,8.00
2018-01-19T19:07:35.261Z,7.70
2018-01-19T19:10:04.050Z,6.93
2018-01-19T19:12:32.794Z,7.93
2018-01-19T19:15:01.661Z,5.53
2018-01-19T19:17:30.043Z,5.90
2018-01-19T19:19:58.480Z,5.50
2018-01-19T19:22:26.860Z,7.40
2018-01-19T19:24:55.301Z,5.87
2018-01-19T19:27:24.084Z,5.07
2018-01-19T19:29:52.418Z,5.93
2018-01-19T19:32:20.763Z,7.83
2018-01-19T19:34:49.134Z,8.40
2018-01-19T19:37:17.478Z,6.10
2018-01-19T19:39:45.823Z,8.33
2018-01-19T19:42:14.196Z,7.53
2018-01-19T19:44:42.966Z,5.37
2018-01-19T19:47:11.373Z,8.80
2018-01-19T19:49:39.774Z,7.70
2018-01-19T19:52:08.098Z,7.00
2018-01-19T19:54:36.454Z,7.20
2018-01-19T19:57:04.788Z,8.77
2018-01-19T19:59:33.135Z,8.10
2018-01-19T20:02:01.487Z,6.10
2018-01-19T20:04:29.832Z,7.80
2018-01-19T20:06:59.505Z,9.07
2018-01-19T20:09:28.293Z,7.53
2018-01-19T20:11:56.669Z,9.87
2018-01-19T20:14:25.008Z,9.73
2018-01-19T20:16:53.401Z,9.33
2018-01-19T20:19:21.780Z,9.90
2018-01-19T20:21:50.390Z,8.20
2018-01-19T20:24:19.202Z,9.23
2018-01-19T20:26:47.617Z,9.97
2018-01-19T20:29:15.954Z,11.63
2018-01-19T20:31:44.304Z,9.77
2018-01-19T20:34:12.680Z,11.53
2018-01-19T20:36:41.025Z,12.10
2018-01-19T20:39:09.411Z,11.03
2018-01-19T20:41:37.758Z,10.23
2018-01-19T20:44:06.125Z,11.00
2018-01-19T20:46:34.493Z,13.90
2018-01-19T20:49:02.849Z,10.37
2018-01-19T20:51:31.204Z,9.07
2018-01-19T20:53:59.570Z,7.10
2018-01-19T20:56:28.575Z,12.40
2018-01-19T20:58:56.925Z,5.80
2018-01-19T21:01:25.274Z,6.63
2018-01-19T21:03:54.070Z,5.00
2018-01-19T21:06:22.500Z,5.73
2018-01-19T21:08:50.854Z,7.43
2018-01-19T21:11:19.202Z,4.07
2018-01-19T21:13:47.969Z,5.33
2018-01-19T21:16:16.674Z,10.53
2018-01-19T21:18:45.749Z,6.00
2018-01-19T21:21:14.450Z,6.23
2018-01-19T21:23:43.170Z,5.73
2018-01-19T21:26:11.565Z,8.53
2018-01-19T21:28:39.902Z,5.00
2018-01-19T21:31:08.868Z,4.70
2018-01-19T21:33:37.219Z,3.83
2018-01-19T21:36:05.582Z,4.10
2018-01-19T21:38:33.962Z,6.30
2018-01-19T21:41:02.297Z,4.97
2018-01-19T21:43:31.051Z,4.60
2018-01-19T21:45:59.855Z,5.10
2018-01-19T21:48:28.263Z,4.07
2018-01-19T21:50:56.698Z,4.93
2018-01-19T21:53:25.126Z,4.20
2018-01-19T21:55:53.479Z,4.07
2018-01-19T21:58:21.830Z,5.50
2018-01-19T22:00:50.170Z,5.90
2018-01-19T22:03:18.550Z,5.63
2018-01-19T22:05:46.911Z,4.50
2018-01-19T22:08:15.257Z,5.40
2018-01-19T22:10:43.926Z,4.53
2018-01-19T22:13:12.533Z,6.33
2018-01-19T22:15:40.863Z,5.10
2018-01-19T22:18:09.497Z,4.50
2018-01-19T22:20:37.814Z,4.97
2018-01-19T22:23:06.162Z,5.27
2018-01-19T22:25:35.054Z,4.43
2018-01-19T22:28:03.785Z,5.90
2018-01-19T22:30:32.137Z,5.00
2018-01-19T22:33:00.452Z,5.43
2018-01-19T22:35:28.774Z,7.63
2018-01-19T22:37:57.497Z,4.97
2018-01-19T22:40:25.829Z,5.10
2018-01-19T22:42:54.567Z,4.77
2018-01-19T22:45:22.964Z,4.90
2018-01-19T22:47:51.301Z,6.07
2018-01-19T22:50:19.675Z,5.30
2018-01-19T22:52:48.055Z,4.90
2018-01-19T22:55:16.390Z,5.83
2018-01-19T22:57:44.725Z,4.13
2018-01-19T23:00:18.960Z,4.83
2018-01-19T23:02:47.279Z,5.70
2018-01-19T23:05:16.020Z,4.93
2018-01-19T23:07:44.390Z,4.53
2018-01-19T23:10:12.733Z,4.67
2018-01-19T23:12:41.463Z,5.40
2018-01-19T23:15:09.807Z,6.53
2018-01-19T23:17:38.173Z,5.67
2018-01-19T23:20:06.940Z,4.80
2018-01-19T23:22:35.281Z,5.50
2018-01-19T23:25:03.597Z,4.83
2018-01-19T23:27:31.958Z,6.47
2018-01-19T23:30:00.297Z,4.87
2018-01-19T23:32:29.345Z,4.57
2018-01-19T23:34:57.685Z,4.67
2018-01-19T23:37:26.024Z,5.60
2018-01-19T23:39:54.408Z,5.10
2018-01-19T23:42:22.723Z,4.73
2018-01-19T23:44:51.056Z,5.30
2018-01-19T23:47:19.422Z,4.97
2018-01-19T23:49:48.154Z,4.40
2018-01-19T23:52:16.470Z,4.43
2018-01-19T23:54:44.838Z,5.60
2018-01-19T23:57:15.094Z,5.20
2018-01-19T23:59:43.831Z,4.40
